Time,TemperatureF,DewpointF,PressureIn,WindDirection,WindDirectionDegrees,WindSpeedMPH,WindSpeedGustMPH,Humidity,HourlyPrecipIn,Conditions,Clouds,dailyrainin,SoftwareType,DateUTC
2015-02-01 00:05:00,18.1,11.5,30.19,North,356,4.0,5.0,75,0.00,,,0.00,Wunderground v.1.15,2015-02-01 07:05:00,
2015-02-01 00:10:00,18.1,11.5,30.19,North,359,3.0,6.0,75,0.00,,,0.00,Wunderground v.1.15,2015-02-01 07:10:00,
2015-02-01 00:20:00,18.0,11.1,30.19,North,350,4.0,6.0,74,0.00,,,0.00,Wunderground v.1.15,2015-02-01 07:20:00,
2015-02-01 00:25:00,17.8,10.9,30.19,North,0,5.0,6.0,74,0.00,,,0.00,Wunderground v.1.15,2015-02-01 07:25:00,
2015-02-01 00:35:00,17.8,11.2,30.20,NNW,343,2.0,4.0,75,0.00,,,0.00,Wunderground v.1.15,2015-02-01 07:35:00,
2015-02-01 00:45:00,17.8,11.2,30.20,NW,323,3.0,6.0,75,0.00,,,0.00,Wunderground v.1.15,2015-02-01 07:45:00,
2015-02-01 00:50:00,17.8,11.2,30.20,NNW,344,4.0,6.0,75,0.00,,,0.00,Wunderground v.1.15,2015-02-01 07:50:00,
2015-02-01 01:00:00,17.5,10.6,30.20,NW,323,4.0,4.0,74,0.00,,,0.00,Wunderground v.1.15,2015-02-01 08:00:00,
2015-02-01 01:10:00,17.3,10.7,30.20,NW,319,3.0,3.0,75,0.00,,,0.00,Wunderground v.1.15,2015-02-01 08:10:00,
2015-02-01 01:15:00,17.3,10.7,30.21,NW,319,2.0,4.0,75,0.00,,,0.00,Wunderground v.1.15,2015-02-01 08:15:00,
2015-02-01 01:20:00,17.2,10.9,30.21,NNW,333,2.0,2.0,76,0.00,,,0.00,Wunderground v.1.15,2015-02-01 08:20:00,
2015-02-01 01:30:00,16.9,10.6,30.21,North,353,3.0,3.0,76,0.00,,,0.00,Wunderground v.1.15,2015-02-01 08:30:00,
2015-02-01 01:40:00,16.4,9.3,30.21,WNW,301,3.0,4.0,73,0.00,,,0.00,Wunderground v.1.15,2015-02-01 08:40:00,
2015-02-01 01:50:00,15.9,8.5,30.22,North,0,4.0,6.0,72,0.00,,,0.00,Wunderground v.1.15,2015-02-01 08:50:00,
2015-02-01 02:00:00,15.6,8.2,30.22,North,0,5.0,5.0,72,0.00,,,0.00,Wunderground v.1.15,2015-02-01 09:00:00,
2015-02-01 02:10:00,15.4,8.3,30.22,North,349,4.0,6.0,73,0.00,,,0.00,Wunderground v.1.15,2015-02-01 09:10:00,
2015-02-01 02:20:00,15.4,8.3,30.25,North,0,5.0,5.0,73,0.00,,,0.00,Wunderground v.1.15,2015-02-01 09:20:00,
2015-02-01 02:25:00,15.4,8.6,30.25,NNW,344,4.0,6.0,74,0.00,,,0.00,Wunderground v.1.15,2015-02-01 09:25:00,
2015-02-01 02:35:00,15.2,8.1,30.26,North,0,4.0,7.0,73,0.00,,,0.00,Wunderground v.1.15,2015-02-01 09:35:00,
2015-02-01 02:45:00,14.6,7.2,30.26,North,3,5.0,5.0,72,0.00,,,0.00,Wunderground v.1.15,2015-02-01 09:45:00,
2015-02-01 02:55:00,14.6,7.2,30.26,North,359,3.0,6.0,72,0.00,,,0.00,Wunderground v.1.15,2015-02-01 09:55:00,
2015-02-01 03:10:00,14.4,7.3,30.26,North,0,2.0,6.0,73,0.00,,,0.00,Wunderground v.1.15,2015-02-01 10:10:00,
2015-02-01 03:20:00,14.3,6.9,30.26,North,0,2.0,2.0,72,0.00,,,0.00,Wunderground v.1.15,2015-02-01 10:20:00,
2015-02-01 03:30:00,14.1,6.7,30.27,North,0,2.0,4.0,72,0.00,,,0.00,Wunderground v.1.15,2015-02-01 10:30:00,
2015-02-01 03:35:00,14.1,6.7,30.27,North,0,2.0,4.0,72,0.00,,,0.00,Wunderground v.1.15,2015-02-01 10:35:00,
2015-02-01 03:45:00,14.1,7.0,30.27,North,0,2.0,4.0,73,0.00,,,0.00,Wunderground v.1.15,2015-02-01 10:45:00,
2015-02-01 03:50:00,13.8,6.4,30.27,North,0,3.0,6.0,72,0.00,,,0.00,Wunderground v.1.15,2015-02-01 10:50:00,
2015-02-01 03:55:00,13.6,6.2,30.27,North,0,3.0,6.0,72,0.00,,,0.00,Wunderground v.1.15,2015-02-01 10:55:00,
2015-02-01 04:05:00,13.5,6.1,30.26,North,0,2.0,2.0,72,0.00,,,0.00,Wunderground v.1.15,2015-02-01 11:05:00,
2015-02-01 04:10:00,13.3,6.0,30.26,North,0,1.0,6.0,72,0.00,,,0.00,Wunderground v.1.15,2015-02-01 11:10:00,
2015-02-01 04:20:00,13.3,6.0,30.30,North,0,2.0,2.0,72,0.00,,,0.00,Wunderground v.1.15,2015-02-01 11:20:00,
2015-02-01 04:25:00,13.3,6.0,30.30,North,0,1.0,4.0,72,0.00,,,0.00,Wunderground v.1.15,2015-02-01 11:25:00,
2015-02-01 04:35:00,13.3,6.0,30.30,North,0,2.0,2.0,72,0.00,,,0.00,Wunderground v.1.15,2015-02-01 11:35:00,
2015-02-01 04:45:00,13.3,6.0,30.31,North,359,2.0,2.0,72,0.00,,,0.00,Wunderground v.1.15,2015-02-01 11:45:00,
2015-02-01 04:55:00,13.3,6.3,30.31,NNW,333,2.0,2.0,73,0.00,,,0.00,Wunderground v.1.15,2015-02-01 11:55:00,
2015-02-01 05:05:00,13.1,6.1,30.32,NNW,340,3.0,3.0,73,0.00,,,0.00,Wunderground v.1.15,2015-02-01 12:05:00,
2015-02-01 05:10:00,13.1,6.1,30.32,North,356,3.0,3.0,73,0.00,,,0.00,Wunderground v.1.15,2015-02-01 12:10:00,
2015-02-01 05:20:00,12.9,5.9,30.35,North,0,2.0,2.0,73,0.00,,,0.00,Wunderground v.1.15,2015-02-01 12:20:00,
2015-02-01 05:25:00,12.9,5.9,30.35,North,359,3.0,3.0,73,0.00,,,0.00,Wunderground v.1.15,2015-02-01 12:25:00,
2015-02-01 05:35:00,12.8,6.1,30.35,North,359,2.0,4.0,74,0.00,,,0.00,Wunderground v.1.15,2015-02-01 12:35:00,
2015-02-01 05:45:00,12.6,5.9,30.35,North,0,2.0,6.0,74,0.00,,,0.00,Wunderground v.1.15,2015-02-01 12:45:00,
2015-02-01 05:55:00,12.4,5.7,30.35,NNW,342,1.0,1.0,74,0.00,,,0.00,Wunderground v.1.15,2015-02-01 12:55:00,
2015-02-01 06:10:00,12.1,5.4,30.36,North,350,3.0,3.0,74,0.00,,,0.00,Wunderground v.1.15,2015-02-01 13:10:00,
2015-02-01 06:15:00,11.9,5.2,30.39,North,353,2.0,4.0,74,0.00,,,0.00,Wunderground v.1.15,2015-02-01 13:15:00,
2015-02-01 06:25:00,11.7,5.0,30.39,North,0,2.0,6.0,74,0.00,,,0.00,Wunderground v.1.15,2015-02-01 13:25:00,
2015-02-01 06:30:00,11.7,5.0,30.40,North,0,2.0,2.0,74,0.00,,,0.00,Wunderground v.1.15,2015-02-01 13:30:00,
2015-02-01 06:35:00,11.7,5.0,30.40,North,0,2.0,2.0,74,0.00,,,0.00,Wunderground v.1.15,2015-02-01 13:35:00,
2015-02-01 06:45:00,11.7,5.0,30.41,North,0,2.0,2.0,74,0.00,,,0.00,Wunderground v.1.15,2015-02-01 13:45:00,
2015-02-01 06:55:00,11.7,5.0,30.41,North,0,2.0,7.0,74,0.00,,,0.00,Wunderground v.1.15,2015-02-01 13:55:00,
2015-02-01 07:10:00,11.6,4.9,30.42,North,3,2.0,4.0,74,0.00,,,0.00,Wunderground v.1.15,2015-02-01 14:10:00,
2015-02-01 07:15:00,11.6,4.9,30.42,North,3,1.0,4.0,74,0.00,,,0.00,Wunderground v.1.15,2015-02-01 14:15:00,
2015-02-01 07:25:00,11.6,4.9,30.42,North,3,1.0,2.0,74,0.00,,,0.00,Wunderground v.1.15,2015-02-01 14:25:00,
2015-02-01 07:35:00,11.6,4.9,30.43,North,3,1.0,1.0,74,0.00,,,0.00,Wunderground v.1.15,2015-02-01 14:35:00,
2015-02-01 07:45:00,11.6,4.9,30.43,North,3,1.0,2.0,74,0.00,,,0.00,Wunderground v.1.15,2015-02-01 14:45:00,
2015-02-01 07:55:00,11.7,5.0,30.43,North,3,2.0,2.0,74,0.00,,,0.00,Wunderground v.1.15,2015-02-01 14:55:00,
2015-02-01 08:05:00,11.7,5.0,30.44,North,0,2.0,2.0,74,0.00,,,0.00,Wunderground v.1.15,2015-02-01 15:05:00,
2015-02-01 08:10:00,11.7,5.0,30.44,North,0,2.0,2.0,74,0.00,,,0.00,Wunderground v.1.15,2015-02-01 15:10:00,
2015-02-01 08:20:00,11.7,5.0,30.48,North,359,2.0,6.0,74,0.00,,,0.00,Wunderground v.1.15,2015-02-01 15:20:00,
2015-02-01 08:25:00,11.7,5.0,30.48,North,353,2.0,6.0,74,0.00,,,0.00,Wunderground v.1.15,2015-02-01 15:25:00,
2015-02-01 08:35:00,11.7,5.0,30.48,North,359,2.0,4.0,74,0.00,,,0.00,Wunderground v.1.15,2015-02-01 15:35:00,
2015-02-01 08:45:00,11.7,5.0,30.49,North,359,3.0,4.0,74,0.00,,,0.00,Wunderground v.1.15,2015-02-01 15:45:00,
2015-02-01 08:55:00,11.7,4.7,30.49,North,0,4.0,6.0,73,0.00,,,0.00,Wunderground v.1.15,2015-02-01 15:55:00,
2015-02-01 09:10:00,11.9,4.9,30.49,North,359,2.0,2.0,73,0.00,,,0.00,Wunderground v.1.15,2015-02-01 16:10:00,
2015-02-01 09:15:00,12.1,5.1,30.50,North,0,2.0,2.0,73,0.00,,,0.00,Wunderground v.1.15,2015-02-01 16:15:00,
2015-02-01 09:25:00,12.4,5.4,30.50,North,359,1.0,1.0,73,0.00,,,0.00,Wunderground v.1.15,2015-02-01 16:25:00,
2015-02-01 09:30:00,12.8,5.8,30.50,North,359,1.0,1.0,73,0.00,,,0.00,Wunderground v.1.15,2015-02-01 16:30:00,
2015-02-01 09:40:00,13.3,6.3,30.50,North,359,0.0,0.0,73,0.00,,,0.00,Wunderground v.1.15,2015-02-01 16:40:00,
2015-02-01 09:50:00,13.6,6.2,30.49,North,359,0.0,0.0,72,0.00,,,0.00,Wunderground v.1.15,2015-02-01 16:50:00,
2015-02-01 10:00:00,14.0,6.3,30.49,North,0,0.0,0.0,71,0.00,,,0.00,Wunderground v.1.15,2015-02-01 17:00:00,
2015-02-01 10:05:00,14.3,6.3,30.49,North,0,0.0,0.0,70,0.00,,,0.00,Wunderground v.1.15,2015-02-01 17:05:00,
2015-02-01 10:15:00,14.9,6.6,30.50,North,0,0.0,0.0,69,0.00,,,0.00,Wunderground v.1.15,2015-02-01 17:15:00,
2015-02-01 10:25:00,15.7,7.0,30.50,North,0,0.0,2.0,68,0.00,,,0.00,Wunderground v.1.15,2015-02-01 17:25:00,
2015-02-01 10:30:00,16.1,7.4,30.49,North,0,0.0,0.0,68,0.00,,,0.00,Wunderground v.1.15,2015-02-01 17:30:00,
2015-02-01 10:40:00,16.1,7.1,30.49,East,86,0.0,1.0,67,0.00,,,0.00,Wunderground v.1.15,2015-02-01 17:40:00,
2015-02-01 10:50:00,16.5,7.1,30.48,East,85,0.0,0.0,66,0.00,,,0.00,Wunderground v.1.15,2015-02-01 17:50:00,
2015-02-01 11:00:00,17.3,7.5,30.48,East,85,0.0,0.0,65,0.00,,,0.00,Wunderground v.1.15,2015-02-01 18:00:00,
2015-02-01 11:10:00,19.5,8.2,30.48,East,79,0.0,1.0,61,0.00,,,0.01,Wunderground v.1.15,2015-02-01 18:10:00,
2015-02-01 11:15:00,19.7,8.4,30.46,East,79,0.0,1.0,61,0.00,,,0.01,Wunderground v.1.15,2015-02-01 18:15:00,
2015-02-01 11:25:00,21.1,9.4,30.46,ENE,61,1.0,2.0,60,0.00,,,0.01,Wunderground v.1.15,2015-02-01 18:25:00,
2015-02-01 11:30:00,20.6,8.9,30.45,ENE,61,1.0,2.0,60,0.00,,,0.01,Wunderground v.1.15,2015-02-01 18:30:00,
2015-02-01 11:35:00,20.5,8.4,30.45,WNW,284,1.0,2.0,59,0.00,,,0.01,Wunderground v.1.15,2015-02-01 18:35:00,
2015-02-01 11:45:00,21.0,8.5,30.45,WNW,302,1.0,1.0,58,0.00,,,0.02,Wunderground v.1.15,2015-02-01 18:45:00,
2015-02-01 11:55:00,19.9,7.1,30.45,WSW,256,3.0,3.0,57,0.04,,,0.03,Wunderground v.1.15,2015-02-01 18:55:00,
2015-02-01 12:00:00,19.4,7.8,30.45,NW,318,3.0,3.0,60,0.04,,,0.03,Wunderground v.1.15,2015-02-01 19:00:00,
2015-02-01 12:10:00,19.4,7.4,30.45,West,271,2.0,2.0,59,0.00,,,0.03,Wunderground v.1.15,2015-02-01 19:10:00,
2015-02-01 12:20:00,19.1,7.5,30.45,WSW,258,4.0,4.0,60,0.00,,,0.03,Wunderground v.1.15,2015-02-01 19:20:00,
2015-02-01 12:30:00,19.5,8.2,30.44,WSW,250,4.0,4.0,61,0.00,,,0.03,Wunderground v.1.15,2015-02-01 19:30:00,
2015-02-01 12:40:00,20.5,8.8,30.44,West,277,4.0,4.0,60,0.00,,,0.03,Wunderground v.1.15,2015-02-01 19:40:00,
2015-02-01 12:45:00,21.0,9.3,30.42,West,263,3.0,4.0,60,0.00,,,0.03,Wunderground v.1.15,2015-02-01 19:45:00,
2015-02-01 12:55:00,21.0,9.3,30.42,West,281,4.0,4.0,60,0.00,,,0.03,Wunderground v.1.15,2015-02-01 19:55:00,
2015-02-01 13:05:00,21.4,9.7,30.40,West,264,3.0,6.0,60,0.00,,,0.03,Wunderground v.1.15,2015-02-01 20:05:00,
2015-02-01 13:15:00,21.4,9.7,30.41,SW,227,3.0,3.0,60,0.00,,,0.03,Wunderground v.1.15,2015-02-01 20:15:00,
2015-02-01 13:20:00,21.4,9.7,30.41,WNW,284,3.0,6.0,60,0.00,,,0.03,Wunderground v.1.15,2015-02-01 20:20:00,
2015-02-01 13:30:00,23.5,11.6,30.37,West,280,4.0,4.0,60,0.00,,,0.03,Wunderground v.1.15,2015-02-01 20:30:00,
2015-02-01 13:40:00,23.5,10.1,30.37,WNW,284,5.0,8.0,56,0.00,,,0.03,Wunderground v.1.15,2015-02-01 20:40:00,
2015-02-01 13:50:00,25.0,11.5,30.36,WNW,298,6.0,10.0,56,0.00,,,0.03,Wunderground v.1.15,2015-02-01 20:50:00,
2015-02-01 14:00:00,25.1,11.6,30.35,WSW,258,6.0,6.0,56,0.00,,,0.03,Wunderground v.1.15,2015-02-01 21:00:00,
2015-02-01 14:10:00,25.7,11.3,30.35,WSW,258,4.0,4.0,54,0.00,,,0.03,Wunderground v.1.15,2015-02-01 21:10:00,